McCanna, North Dakota
Current Conditions -  °F | °C
As of 9:58 AM on Friday 28 Nov 2014 (Local Time) from KRDR Reporting Station
Overcast Overcast  
Wind Chill:   Ceiling: 400
Heat Index: 13°   Visibility: 7mi
Dew Point:   Wind: 10mph
Humidity: 85%   Direction: 120°ESE
Pressure: 29.93"   Gusts: NA
Location:  47.8728°N, 97.7386°W
Report Text: KRDR 281558Z AUTO 12009KT 7SM OVC004 M10/M13 A2993 RMK AO2 SNB1459E1522 OVC V BKN SLP161 P0000 T11051126
Loading
Personal Weather Stations






























Interactive Weather Map New forecast layout! Learn more

10-Day Weather Forecast

Advertisements
Track Severe Weather on mobile